CYNL

METAR CYNL 161500Z AUTO 25006KT 9SM CLR M12/M15 A2986 RMK AO1 PRESFR SLP167
METAR
LOCATION
CYNL
DATE - TIME
161500Z
WIND
250 TRUE @ 6 KNOTS
VISIBILITY
9SM
RUNWAY VISUAL RANGE
NOT REPORTED
WEATHER
CLOUDINESS
CLR
TEMP / DEWPOINT
-12 ºC / -15 ºC
ALTIMETER
29.86 in. Hg
RECENT WEATHER
NOT REPORTED
WIND SHEAR
NOT REPORTED
REMARKS
RMK AO1 PRESFR SLP167
SEA LEVEL PRESSURE: hPa

CYNL

METAR CYNL 161400Z AUTO 26006KT 9SM CLR M11/M14 A2989 RMK AO1 SLP176
METAR
LOCATION
CYNL
DATE - TIME
161400Z
WIND
260 TRUE @ 6 KNOTS
VISIBILITY
9SM
RUNWAY VISUAL RANGE
NOT REPORTED
WEATHER
CLOUDINESS
CLR
TEMP / DEWPOINT
-11 ºC / -14 ºC
ALTIMETER
29.89 in. Hg
RECENT WEATHER
NOT REPORTED
WIND SHEAR
NOT REPORTED
REMARKS
RMK AO1 SLP176
SEA LEVEL PRESSURE: hPa

CYNL

METAR CYNL 161300Z AUTO 24008KT 9SM CLR M11/M14 A2990 RMK AO1 SLP182
METAR
LOCATION
CYNL
DATE - TIME
161300Z
WIND
240 TRUE @ 8 KNOTS
VISIBILITY
9SM
RUNWAY VISUAL RANGE
NOT REPORTED
WEATHER
CLOUDINESS
CLR
TEMP / DEWPOINT
-11 ºC / -14 ºC
ALTIMETER
29.90 in. Hg
RECENT WEATHER
NOT REPORTED
WIND SHEAR
NOT REPORTED
REMARKS
RMK AO1 SLP182
SEA LEVEL PRESSURE: hPa

Your time UTC time
 
 
Weather data provided by AXYS Technologies Inc., www.axystechnologies.com
 
Station History